createdAt,value
2023-05-12T00:00:37.496Z,196.66
2023-05-12T00:01:37.501Z,198.51
2023-05-12T00:02:37.585Z,198.84
2023-05-12T00:03:37.737Z,199.62
2023-05-12T00:04:37.594Z,199.42
2023-05-12T00:05:37.669Z,198.32
2023-05-12T00:06:37.666Z,198.82
2023-05-12T00:07:37.685Z,198.95
2023-05-12T00:08:37.733Z,199.15
2023-05-12T00:09:37.794Z,200.11
2023-05-12T00:10:37.845Z,199.79
2023-05-12T00:11:37.843Z,197.44
2023-05-12T00:12:37.893Z,197.49
2023-05-12T00:13:37.975Z,199.63
2023-05-12T00:14:37.924Z,195.56
2023-05-12T00:15:37.998Z,195.49
2023-05-12T00:16:38.153Z,197.43
2023-05-12T00:17:38.070Z,197.08
2023-05-12T00:18:38.099Z,196.99
2023-05-12T00:19:38.252Z,199.13
2023-05-12T00:20:38.152Z,197.58
2023-05-12T00:21:38.235Z,196.57
2023-05-12T00:22:38.274Z,196.37
2023-05-12T00:23:38.317Z,197.11
2023-05-12T00:24:38.364Z,195.73
2023-05-12T00:25:38.399Z,195.21
2023-05-12T00:26:38.442Z,194.69
2023-05-12T00:27:38.478Z,195.10
2023-05-12T00:28:38.483Z,196.17
2023-05-12T00:29:38.538Z,195.66
2023-05-12T00:30:38.581Z,193.93
2023-05-12T00:31:38.676Z,197.10
2023-05-12T00:32:38.686Z,196.15
2023-05-12T00:33:38.668Z,196.33
2023-05-12T00:34:38.717Z,198.35
2023-05-12T00:35:38.744Z,201.13
2023-05-12T00:36:38.782Z,202.18
2023-05-12T00:37:38.824Z,201.75
2023-05-12T00:38:38.858Z,202.73
2023-05-12T00:39:38.893Z,202.38
2023-05-12T00:40:38.930Z,202.46
2023-05-12T00:41:38.932Z,202.72
2023-05-12T00:42:38.960Z,205.17
2023-05-12T00:43:39.007Z,205.39
2023-05-12T00:44:39.013Z,204.67
2023-05-12T00:45:39.107Z,203.95
2023-05-12T00:46:39.079Z,204.78
2023-05-12T00:47:39.126Z,204.15
2023-05-12T00:48:39.145Z,204.64
2023-05-12T00:49:39.205Z,204.92
2023-05-12T00:50:39.236Z,205.99
2023-05-12T00:51:39.308Z,204.90
2023-05-12T00:52:39.323Z,206.82
2023-05-12T00:53:49.147Z,204.86
2023-05-12T00:54:40.357Z,204.98
2023-05-12T00:55:39.337Z,205.09
2023-05-12T00:56:39.446Z,205.10
2023-05-12T00:57:39.312Z,205.82
2023-05-12T00:58:39.323Z,206.58
2023-05-12T00:59:39.306Z,206.97
2023-05-12T01:00:39.341Z,205.08
2023-05-12T01:01:39.406Z,206.40
2023-05-12T01:02:39.410Z,204.70
2023-05-12T01:03:39.309Z,204.22
2023-05-12T01:04:39.333Z,202.33
2023-05-12T01:05:39.298Z,204.63
2023-05-12T01:06:39.275Z,204.81
2023-05-12T01:07:39.345Z,202.95
2023-05-12T01:08:39.364Z,204.01
2023-05-12T01:09:39.392Z,203.35
2023-05-12T01:10:39.442Z,203.68
2023-05-12T01:11:39.505Z,206.91
2023-05-12T01:12:39.553Z,204.49
2023-05-12T01:13:39.565Z,205.99
2023-05-12T01:14:39.624Z,204.25
2023-05-12T01:15:39.671Z,205.05
2023-05-12T01:16:39.726Z,204.04
2023-05-12T01:17:39.874Z,204.05
2023-05-12T01:18:39.803Z,203.92
2023-05-12T01:19:39.826Z,204.00
2023-05-12T01:20:39.855Z,204.50
2023-05-12T01:21:39.888Z,205.07
2023-05-12T01:22:40.142Z,204.05
2023-05-12T01:23:40.004Z,204.41
2023-05-12T01:24:40.054Z,206.35
2023-05-12T01:25:40.229Z,206.89
2023-05-12T01:26:40.113Z,206.62
2023-05-12T01:27:40.193Z,207.75
2023-05-12T01:28:40.180Z,208.53
2023-05-12T01:29:40.240Z,208.87
2023-05-12T01:30:40.247Z,207.69
2023-05-12T01:31:40.398Z,208.85
2023-05-12T01:32:40.339Z,210.13
2023-05-12T01:33:40.329Z,210.47
2023-05-12T01:34:40.327Z,208.34
2023-05-12T01:35:40.393Z,209.05
2023-05-12T01:36:40.423Z,210.86
2023-05-12T01:37:40.473Z,213.30
2023-05-12T01:38:40.507Z,212.04
2023-05-12T01:39:40.495Z,210.43
2023-05-12T01:40:40.485Z,210.42
2023-05-12T01:41:40.530Z,209.29
2023-05-12T01:42:40.581Z,211.14
2023-05-12T01:43:40.585Z,211.82
2023-05-12T01:44:40.634Z,211.75
2023-05-12T01:45:40.654Z,212.52
2023-05-12T01:46:40.738Z,210.18
2023-05-12T01:47:40.751Z,211.85
2023-05-12T01:48:40.767Z,212.75
2023-05-12T01:49:40.806Z,212.92
2023-05-12T01:50:40.846Z,213.45
2023-05-12T01:51:40.880Z,213.37
2023-05-12T01:52:40.914Z,211.74
2023-05-12T01:53:40.947Z,214.48
2023-05-12T01:54:41.000Z,214.92
2023-05-12T01:55:41.157Z,214.20
2023-05-12T01:56:41.078Z,214.17
2023-05-12T01:57:41.262Z,216.66
2023-05-12T01:58:41.217Z,214.04
2023-05-12T01:59:41.160Z,214.16
2023-05-12T02:00:41.189Z,215.50
2023-05-12T02:01:41.291Z,214.59
2023-05-12T02:02:42.880Z,214.92
2023-05-12T02:03:41.440Z,214.08
2023-05-12T02:04:41.332Z,213.82
2023-05-12T02:05:41.400Z,212.76
2023-05-12T02:06:41.443Z,212.15
2023-05-12T02:07:41.485Z,209.30
2023-05-12T02:08:41.506Z,209.53
2023-05-12T02:09:41.538Z,207.35
2023-05-12T02:10:41.588Z,205.18
2023-05-12T02:11:41.642Z,203.98
2023-05-12T02:12:41.685Z,202.63
2023-05-12T02:13:41.709Z,200.57
2023-05-12T02:14:41.754Z,200.26
2023-05-12T02:15:41.808Z,200.02
2023-05-12T02:16:41.954Z,199.05
2023-05-12T02:17:41.865Z,197.94
2023-05-12T02:18:41.910Z,195.93
2023-05-12T02:19:41.917Z,198.77
2023-05-12T02:20:41.942Z,199.01
2023-05-12T02:21:41.996Z,195.76
2023-05-12T02:22:42.016Z,195.68
2023-05-12T02:23:42.052Z,194.75
2023-05-12T02:24:42.088Z,192.24
2023-05-12T02:25:42.149Z,192.03
2023-05-12T02:26:42.182Z,190.38
2023-05-12T02:27:42.297Z,188.41
2023-05-12T02:28:42.244Z,187.67
2023-05-12T02:29:42.314Z,186.79
2023-05-12T02:30:42.337Z,186.18
2023-05-12T02:31:42.603Z,185.25
2023-05-12T02:32:42.426Z,188.03
2023-05-12T02:33:42.460Z,184.91
2023-05-12T02:34:42.457Z,184.67
2023-05-12T02:35:42.463Z,184.83
2023-05-12T02:36:42.519Z,183.44
2023-05-12T02:37:42.532Z,182.06
2023-05-12T02:38:42.558Z,183.47
2023-05-12T02:39:42.618Z,181.21
2023-05-12T02:40:42.643Z,181.75
2023-05-12T02:41:42.654Z,180.36
2023-05-12T02:42:42.710Z,180.15
2023-05-12T02:43:42.744Z,180.04
2023-05-12T02:44:42.773Z,178.50
2023-05-12T02:45:42.869Z,179.56
2023-05-12T02:46:42.848Z,176.63
2023-05-12T02:47:42.940Z,176.44
2023-05-12T02:48:42.953Z,175.03
2023-05-12T02:49:42.947Z,176.36
2023-05-12T02:50:42.970Z,172.57
2023-05-12T02:51:42.993Z,172.66
2023-05-12T02:52:43.025Z,170.62
2023-05-12T02:53:43.136Z,169.61
2023-05-12T02:54:43.124Z,170.96
2023-05-12T02:55:43.165Z,170.73
2023-05-12T02:56:43.199Z,169.50
2023-05-12T02:57:43.221Z,169.43
2023-05-12T02:58:43.271Z,167.95
2023-05-12T02:59:43.350Z,169.90
2023-05-12T03:00:43.351Z,168.96
2023-05-12T03:01:43.459Z,168.59
2023-05-12T03:02:43.609Z,167.11
2023-05-12T03:03:43.644Z,169.00
2023-05-12T03:04:43.495Z,167.99
2023-05-12T03:05:43.542Z,167.06
2023-05-12T03:06:43.601Z,166.45
2023-05-12T03:07:43.655Z,166.29
2023-05-12T03:08:43.644Z,166.49
2023-05-12T03:09:43.673Z,166.15
2023-05-12T03:10:43.707Z,166.28
2023-05-12T03:11:43.753Z,168.28
2023-05-12T03:12:43.801Z,163.75
2023-05-12T03:13:43.857Z,164.45
2023-05-12T03:14:43.865Z,164.61
2023-05-12T03:15:43.940Z,162.71
2023-05-12T03:16:43.996Z,164.44
2023-05-12T03:17:44.004Z,163.57
2023-05-12T03:18:44.019Z,164.77
2023-05-12T03:19:44.003Z,164.18
2023-05-12T03:20:44.100Z,161.63
2023-05-12T03:21:44.088Z,164.15
2023-05-12T03:22:44.119Z,162.54
2023-05-12T03:23:44.147Z,162.78
2023-05-12T03:24:44.169Z,161.53
2023-05-12T03:25:44.184Z,161.62
2023-05-12T03:26:44.220Z,161.90
2023-05-12T03:27:44.283Z,162.18
2023-05-12T03:28:44.244Z,161.42
2023-05-12T03:29:44.302Z,161.59
2023-05-12T03:30:44.365Z,162.10
2023-05-12T03:31:44.519Z,161.05
2023-05-12T03:32:44.480Z,164.02
2023-05-12T03:33:44.456Z,164.00
2023-05-12T03:34:44.476Z,162.93
2023-05-12T03:35:44.512Z,160.56
2023-05-12T03:36:44.563Z,157.73
2023-05-12T03:37:44.602Z,160.98
2023-05-12T03:38:44.669Z,163.01
2023-05-12T03:39:44.713Z,162.39
2023-05-12T03:40:44.714Z,161.69
2023-05-12T03:41:44.750Z,162.52
2023-05-12T03:42:44.810Z,162.84
2023-05-12T03:43:44.843Z,164.54
2023-05-12T03:44:45.062Z,161.44
2023-05-12T03:45:44.918Z,160.85
2023-05-12T03:46:45.077Z,161.66
2023-05-12T03:47:45.227Z,161.51
2023-05-12T03:48:45.082Z,162.33
2023-05-12T03:49:45.115Z,162.97
2023-05-12T03:50:45.144Z,163.56
2023-05-12T03:51:45.182Z,162.80
2023-05-12T03:52:45.208Z,163.81
2023-05-12T03:53:45.284Z,165.06
2023-05-12T03:54:45.295Z,163.97
2023-05-12T03:55:45.316Z,163.52
2023-05-12T03:56:45.380Z,163.41
2023-05-12T03:57:45.407Z,161.33
2023-05-12T03:58:45.469Z,163.04
2023-05-12T03:59:45.474Z,163.21
2023-05-12T04:00:45.519Z,163.77
2023-05-12T04:01:45.604Z,164.41
2023-05-12T04:02:45.773Z,164.71
2023-05-12T04:03:45.758Z,164.73
2023-05-12T04:04:45.723Z,165.27
2023-05-12T04:05:45.755Z,166.80
2023-05-12T04:06:45.758Z,168.87
2023-05-12T04:07:45.793Z,168.20
2023-05-12T04:08:45.842Z,170.57
2023-05-12T04:09:45.902Z,170.48
2023-05-12T04:10:45.954Z,171.69
2023-05-12T04:11:46.047Z,172.53
2023-05-12T04:12:46.065Z,170.02
2023-05-12T04:13:46.049Z,169.00
2023-05-12T04:14:46.114Z,172.66
2023-05-12T04:15:46.122Z,173.75
2023-05-12T04:16:46.302Z,173.29
2023-05-12T04:17:46.316Z,175.59
2023-05-12T04:18:46.315Z,174.92
2023-05-12T04:19:46.328Z,175.28
2023-05-12T04:20:46.333Z,178.43
2023-05-12T04:21:46.391Z,177.20
2023-05-12T04:22:46.436Z,175.76
2023-05-12T04:23:46.523Z,178.00
2023-05-12T04:24:46.505Z,180.21
2023-05-12T04:25:46.570Z,180.56
2023-05-12T04:26:46.603Z,178.72
2023-05-12T04:27:46.649Z,181.35
2023-05-12T04:28:46.720Z,180.88
2023-05-12T04:29:46.741Z,182.43
2023-05-12T04:30:46.769Z,183.57
2023-05-12T04:31:46.860Z,184.98
2023-05-12T04:32:46.934Z,183.96
2023-05-12T04:33:48.319Z,185.38
2023-05-12T04:34:46.919Z,184.96
2023-05-12T04:35:46.961Z,184.49
2023-05-12T04:36:46.995Z,185.49
2023-05-12T04:37:47.060Z,186.11
2023-05-12T04:38:47.095Z,186.25
2023-05-12T04:39:47.125Z,186.36
2023-05-12T04:40:47.159Z,188.35
2023-05-12T04:41:47.217Z,186.34
2023-05-12T04:42:47.272Z,186.07
2023-05-12T04:44:47.351Z,186.33
2023-05-12T04:45:47.349Z,187.92
2023-05-12T04:46:47.326Z,188.03
2023-05-12T04:47:47.317Z,186.14
2023-05-12T04:48:47.365Z,188.54
2023-05-12T04:49:47.292Z,185.61
2023-05-12T04:50:47.290Z,188.25
2023-05-12T04:51:47.290Z,189.19
2023-05-12T04:52:47.278Z,187.43
2023-05-12T04:53:47.270Z,190.16
2023-05-12T04:54:47.251Z,191.56
2023-05-12T04:55:47.246Z,192.30
2023-05-12T04:56:47.237Z,191.32
2023-05-12T04:57:47.221Z,192.47
2023-05-12T04:58:47.205Z,192.98
2023-05-12T04:59:47.216Z,193.49
2023-05-12T05:00:47.204Z,191.09
2023-05-12T05:01:47.350Z,193.38
2023-05-12T05:02:47.321Z,194.79
2023-05-12T05:03:47.278Z,193.63
2023-05-12T05:04:47.177Z,194.56
2023-05-12T05:05:47.167Z,194.88
2023-05-12T05:06:47.163Z,196.47
2023-05-12T05:07:47.153Z,198.50
2023-05-12T05:08:47.157Z,198.68
2023-05-12T05:09:47.136Z,197.80
2023-05-12T05:10:47.138Z,197.59
2023-05-12T05:11:47.156Z,196.15
2023-05-12T05:12:47.124Z,195.50
2023-05-12T05:13:47.130Z,195.88
2023-05-12T05:14:47.119Z,195.54
2023-05-12T05:15:47.126Z,196.33
2023-05-12T05:16:47.085Z,200.01
2023-05-12T05:17:47.131Z,197.61
2023-05-12T05:18:47.128Z,198.44
2023-05-12T05:19:55.954Z,197.68
2023-05-12T05:20:57.241Z,197.87
2023-05-12T05:21:48.051Z,197.92
2023-05-12T05:22:47.045Z,198.71
2023-05-12T05:23:47.052Z,199.63
2023-05-12T05:24:47.050Z,198.67
2023-05-12T05:25:47.050Z,197.89
2023-05-12T05:26:47.029Z,200.91
2023-05-12T05:27:47.266Z,198.11
2023-05-12T05:28:47.011Z,198.79
2023-05-12T05:29:47.014Z,209.23
2023-05-12T05:30:47.024Z,217.77
2023-05-12T05:31:47.076Z,230.81
2023-05-12T05:32:47.369Z,241.26
2023-05-12T05:33:46.983Z,245.55
2023-05-12T05:34:46.971Z,250.63
2023-05-12T05:35:46.963Z,248.85
2023-05-12T05:36:46.944Z,249.51
2023-05-12T05:37:46.943Z,249.87
2023-05-12T05:38:46.938Z,249.03
2023-05-12T05:39:46.940Z,250.00
2023-05-12T05:40:53.607Z,249.64
2023-05-12T05:41:47.910Z,249.94
2023-05-12T05:42:46.939Z,251.21
2023-05-12T05:43:46.918Z,254.69
2023-05-12T05:44:46.917Z,261.49
2023-05-12T05:45:46.881Z,272.60
2023-05-12T05:46:46.886Z,261.43
2023-05-12T05:47:47.307Z,249.45
2023-05-12T05:48:46.874Z,247.77
2023-05-12T05:49:46.863Z,249.40
2023-05-12T05:50:47.006Z,238.73
2023-05-12T05:51:46.865Z,228.80
2023-05-12T05:52:46.876Z,231.45
2023-05-12T05:53:46.869Z,234.84
2023-05-12T05:54:46.828Z,237.62
2023-05-12T05:55:46.890Z,240.58
2023-05-12T05:56:46.877Z,239.96
2023-05-12T05:57:46.930Z,244.51
2023-05-12T05:58:46.917Z,247.69
2023-05-12T05:59:46.988Z,249.71
2023-05-12T06:00:47.040Z,250.00
2023-05-12T06:01:47.119Z,250.37
2023-05-12T06:02:47.216Z,249.85
2023-05-12T06:03:47.221Z,249.20
2023-05-12T06:04:47.229Z,250.00
2023-05-12T06:05:47.260Z,249.69
2023-05-12T06:06:47.243Z,249.19
2023-05-12T06:07:47.473Z,248.43
2023-05-12T06:08:47.297Z,243.43
2023-05-12T06:09:47.521Z,238.70
2023-05-12T06:10:47.363Z,239.23
2023-05-12T06:11:47.415Z,230.59
2023-05-12T06:12:47.436Z,231.94
2023-05-12T06:13:47.495Z,220.63
2023-05-12T06:14:47.517Z,225.02
2023-05-12T06:15:47.537Z,217.69
2023-05-12T06:16:47.680Z,202.57
2023-05-12T06:17:47.665Z,211.62
2023-05-12T06:18:47.736Z,210.13
2023-05-12T06:19:47.737Z,216.61
2023-05-12T06:20:47.775Z,214.10
2023-05-12T06:21:47.831Z,213.81
2023-05-12T06:22:47.893Z,215.50
2023-05-12T06:23:47.947Z,207.34
2023-05-12T06:24:47.936Z,208.10
2023-05-12T06:25:47.955Z,218.20
2023-05-12T06:26:47.996Z,222.37
2023-05-12T06:27:48.090Z,224.83
2023-05-12T06:28:48.081Z,228.93
2023-05-12T06:29:48.096Z,230.93
2023-05-12T06:30:48.109Z,232.20
2023-05-12T06:31:48.169Z,232.65
2023-05-12T06:32:48.452Z,229.93
2023-05-12T06:33:48.219Z,230.32
2023-05-12T06:34:48.254Z,232.63
2023-05-12T06:35:48.277Z,234.31
2023-05-12T06:36:48.303Z,232.08
2023-05-12T06:37:48.536Z,230.79
2023-05-12T06:38:48.409Z,228.82
2023-05-12T06:39:48.442Z,225.42
2023-05-12T06:40:48.446Z,225.32
2023-05-12T06:41:48.490Z,226.17
2023-05-12T06:42:48.528Z,226.47
2023-05-12T06:43:48.548Z,229.69
2023-05-12T06:44:48.599Z,228.66
2023-05-12T06:45:48.664Z,196.43
2023-05-12T06:46:48.707Z,186.77
2023-05-12T06:47:48.817Z,192.53
2023-05-12T06:48:48.717Z,200.00
2023-05-12T06:49:48.737Z,209.40
2023-05-12T06:50:48.765Z,214.90
2023-05-12T06:51:48.776Z,220.72
2023-05-12T06:52:48.820Z,222.14
2023-05-12T06:53:48.814Z,226.12
2023-05-12T06:54:48.858Z,229.21
2023-05-12T06:55:48.884Z,232.07
2023-05-12T06:56:48.949Z,233.34
2023-05-12T06:57:49.306Z,236.09
2023-05-12T06:58:49.015Z,236.68
2023-05-12T06:59:49.029Z,239.15
2023-05-12T07:00:49.040Z,239.39
2023-05-12T07:01:49.085Z,241.13
2023-05-12T07:02:49.132Z,242.28
2023-05-12T07:03:49.145Z,243.85
2023-05-12T07:04:49.155Z,246.45
2023-05-12T07:05:49.249Z,247.82
2023-05-12T07:06:49.252Z,249.08
2023-05-12T07:07:49.272Z,249.62
2023-05-12T07:08:49.307Z,249.15
2023-05-12T07:09:49.324Z,249.65
2023-05-12T07:10:49.387Z,249.57
2023-05-12T07:11:50.217Z,251.84
2023-05-12T07:12:49.442Z,251.62
2023-05-12T07:13:49.460Z,250.00
2023-05-12T07:14:49.510Z,248.12
2023-05-12T07:15:49.897Z,249.05
2023-05-12T07:16:49.589Z,247.66
2023-05-12T07:17:49.897Z,246.45
2023-05-12T07:18:49.702Z,245.98
2023-05-12T07:19:49.689Z,244.06
2023-05-12T07:20:49.745Z,243.26
2023-05-12T07:21:49.791Z,241.28
2023-05-12T07:22:49.834Z,235.23
2023-05-12T07:23:49.858Z,233.49
2023-05-12T07:24:49.887Z,232.67
2023-05-12T07:25:49.910Z,231.44
2023-05-12T07:26:49.943Z,231.21
2023-05-12T07:27:50.007Z,227.90
2023-05-12T07:28:49.953Z,224.25
2023-05-12T07:29:49.986Z,220.08
2023-05-12T07:30:49.992Z,214.63
2023-05-12T07:31:50.142Z,202.34
2023-05-12T07:32:50.094Z,190.53
2023-05-12T07:33:50.117Z,185.24
2023-05-12T07:34:50.179Z,188.63
2023-05-12T07:35:50.195Z,196.87
2023-05-12T07:36:50.233Z,200.44
2023-05-12T07:37:50.280Z,202.47
2023-05-12T07:38:50.310Z,202.89
2023-05-12T07:39:50.332Z,203.54
2023-05-12T07:40:50.341Z,203.10
2023-05-12T07:41:50.354Z,204.65
2023-05-12T07:42:50.854Z,205.94
2023-05-12T07:43:50.452Z,207.47
2023-05-12T07:44:50.532Z,209.88
2023-05-12T07:45:50.555Z,212.38
2023-05-12T07:46:50.630Z,216.14
2023-05-12T07:47:50.914Z,218.97
2023-05-12T07:48:50.690Z,218.88
2023-05-12T07:49:50.743Z,220.73
2023-05-12T07:50:50.741Z,222.34
2023-05-12T07:51:50.762Z,222.54
2023-05-12T07:52:50.845Z,222.99
2023-05-12T07:53:50.889Z,224.59
2023-05-12T07:54:50.885Z,225.56
2023-05-12T07:55:50.950Z,225.10
2023-05-12T07:56:51.004Z,216.80
2023-05-12T07:57:51.412Z,219.33
2023-05-12T07:58:51.384Z,214.26
2023-05-12T07:59:51.102Z,207.98
2023-05-12T08:00:51.143Z,205.05
2023-05-12T08:01:51.196Z,199.92
2023-05-12T08:02:51.711Z,192.29
2023-05-12T08:03:51.606Z,177.21
2023-05-12T08:04:51.326Z,181.93
2023-05-12T08:05:51.418Z,167.94
2023-05-12T08:06:51.394Z,170.33
2023-05-12T08:07:51.485Z,168.62
2023-05-12T08:08:51.495Z,165.15
2023-05-12T08:09:51.516Z,158.30
2023-05-12T08:10:51.587Z,162.38
2023-05-12T08:11:51.971Z,163.24
2023-05-12T08:12:51.619Z,156.60
2023-05-12T08:13:51.629Z,135.90
2023-05-12T08:14:51.654Z,133.12
2023-05-12T08:15:51.678Z,130.84
2023-05-12T08:16:51.707Z,127.95
2023-05-12T08:17:51.736Z,125.79
2023-05-12T08:18:51.755Z,125.27
2023-05-12T08:19:51.774Z,137.47
2023-05-12T08:20:51.705Z,137.64
2023-05-12T08:21:51.733Z,129.21
2023-05-12T08:22:51.716Z,128.80
2023-05-12T08:23:51.870Z,137.21
2023-05-12T08:24:51.784Z,133.88
2023-05-12T08:25:51.832Z,125.00
2023-05-12T08:26:51.883Z,126.39
2023-05-12T08:27:51.907Z,133.28
2023-05-12T08:28:51.964Z,137.97
2023-05-12T08:29:51.985Z,123.28
2023-05-12T08:30:52.084Z,100.97
2023-05-12T08:31:52.016Z,87.85
2023-05-12T08:32:52.131Z,100.54
2023-05-12T08:34:09.215Z,116.61
2023-05-12T08:34:53.061Z,116.92
2023-05-12T08:35:52.120Z,119.20
2023-05-12T08:36:52.033Z,122.62
2023-05-12T08:37:52.038Z,109.99
2023-05-12T08:38:52.016Z,102.25
2023-05-12T08:39:52.008Z,103.16
2023-05-12T08:40:52.038Z,103.58
2023-05-12T08:41:52.079Z,108.25
2023-05-12T08:42:52.105Z,111.39
2023-05-12T08:43:52.352Z,112.72
2023-05-12T08:44:52.169Z,87.37
2023-05-12T08:45:52.234Z,61.65
2023-05-12T08:46:52.391Z,44.87
2023-05-12T08:47:52.297Z,29.84
2023-05-12T08:48:52.311Z,24.01
2023-05-12T08:49:52.598Z,20.09
2023-05-12T08:50:52.352Z,23.20
2023-05-12T08:51:57.736Z,25.11
2023-05-12T08:52:53.389Z,20.62
2023-05-12T08:53:52.361Z,16.32
2023-05-12T08:54:56.042Z,8.55
2023-05-12T08:57:09.135Z,0.00
2023-05-12T08:57:52.355Z,1.08
2023-05-12T08:58:52.385Z,0.00
2023-05-12T08:59:52.312Z,0.00
2023-05-12T09:00:52.455Z,0.00
2023-05-12T09:01:52.594Z,0.00
2023-05-12T09:02:54.578Z,1.32
2023-05-12T09:03:52.942Z,0.00
2023-05-12T09:04:52.663Z,0.00
2023-05-12T09:05:52.624Z,0.00
2023-05-12T09:06:55.522Z,0.00
2023-05-12T09:07:52.648Z,5.00
2023-05-12T09:08:52.887Z,12.81
2023-05-12T09:09:52.671Z,25.36
2023-05-12T09:10:52.613Z,27.64
2023-05-12T09:11:52.613Z,30.29
2023-05-12T09:12:52.624Z,30.65
2023-05-12T09:13:52.860Z,33.81
2023-05-12T09:14:52.615Z,40.45
2023-05-12T09:15:52.651Z,41.52
2023-05-12T09:16:52.649Z,44.78
2023-05-12T09:17:52.665Z,48.62
2023-05-12T09:18:52.761Z,44.50
2023-05-12T09:19:52.572Z,40.09
2023-05-12T09:20:52.565Z,42.57
2023-05-12T09:21:52.562Z,42.29
2023-05-12T09:22:52.576Z,49.74
2023-05-12T09:23:52.955Z,51.75
2023-05-12T09:24:52.548Z,58.44
2023-05-12T09:25:52.525Z,58.86
2023-05-12T09:26:52.569Z,62.56
2023-05-12T09:27:52.507Z,69.99
2023-05-12T09:28:52.505Z,80.48
2023-05-12T09:30:52.517Z,91.35
2023-05-12T09:31:52.519Z,93.85
2023-05-12T09:32:52.493Z,101.18
2023-05-12T09:33:52.865Z,115.20
2023-05-12T09:34:52.466Z,137.53
2023-05-12T09:35:52.480Z,144.76
2023-05-12T09:36:52.450Z,148.64
2023-05-12T09:37:52.451Z,149.35
2023-05-12T09:38:52.882Z,146.68
2023-05-12T09:39:52.545Z,149.03
2023-05-12T09:40:52.436Z,149.78
2023-05-12T09:41:52.415Z,143.89
2023-05-12T09:42:52.433Z,140.84
2023-05-12T09:43:52.872Z,129.19
2023-05-12T09:44:52.417Z,127.38
2023-05-12T09:45:52.451Z,129.89
2023-05-12T09:46:52.392Z,136.39
2023-05-12T09:47:52.412Z,141.94
2023-05-12T09:48:52.878Z,144.72
2023-05-12T09:49:52.395Z,147.39
2023-05-12T09:50:52.409Z,156.05
2023-05-12T09:51:52.366Z,153.35
2023-05-12T09:52:52.337Z,145.80
2023-05-12T09:53:52.397Z,143.65
2023-05-12T09:54:52.336Z,146.44
2023-05-12T09:55:52.340Z,115.75
2023-05-12T09:56:52.295Z,109.67
2023-05-12T09:57:52.292Z,112.94
2023-05-12T09:58:52.287Z,108.47
2023-05-12T09:59:52.332Z,103.32
2023-05-12T10:01:17.891Z,109.24
2023-05-12T10:01:53.299Z,109.26
2023-05-12T10:02:52.368Z,103.33
2023-05-12T10:03:52.255Z,92.20
2023-05-12T10:04:52.332Z,97.57
2023-05-12T10:05:52.248Z,101.20
2023-05-12T10:06:52.227Z,110.84
2023-05-12T10:07:52.236Z,112.80
2023-05-12T10:08:52.389Z,119.10
2023-05-12T10:09:52.221Z,120.75
2023-05-12T10:10:52.240Z,133.40
2023-05-12T10:11:54.011Z,132.87
2023-05-12T10:12:52.216Z,128.34
2023-05-12T10:13:52.442Z,133.41
2023-05-12T10:14:52.371Z,126.42
2023-05-12T10:15:52.365Z,104.84
2023-05-12T10:16:52.396Z,93.65
2023-05-12T10:17:54.023Z,95.13
2023-05-12T10:18:52.513Z,105.05
2023-05-12T10:19:52.541Z,111.59
2023-05-12T10:20:52.557Z,122.07
2023-05-12T10:21:52.594Z,122.41
2023-05-12T10:22:52.632Z,133.85
2023-05-12T10:23:52.878Z,127.78
2023-05-12T10:24:52.699Z,128.51
2023-05-12T10:25:52.721Z,126.79
2023-05-12T10:26:52.778Z,126.82
2023-05-12T10:27:52.839Z,136.22
2023-05-12T10:28:52.887Z,147.82
2023-05-12T10:29:53.609Z,157.94
2023-05-12T10:30:52.943Z,167.62
2023-05-12T10:31:53.108Z,171.27
2023-05-12T10:32:53.074Z,177.65
2023-05-12T10:33:53.034Z,183.07
2023-05-12T10:34:53.100Z,186.48
2023-05-12T10:35:53.091Z,190.59
2023-05-12T10:36:53.108Z,192.12
2023-05-12T10:37:53.114Z,196.47
2023-05-12T10:38:53.186Z,198.16
2023-05-12T10:39:53.237Z,199.03
2023-05-12T10:40:53.306Z,200.09
2023-05-12T10:41:53.313Z,200.16
2023-05-12T10:42:53.363Z,200.18
2023-05-12T10:43:53.421Z,200.47
2023-05-12T10:44:53.412Z,198.44
2023-05-12T10:45:53.433Z,199.31
2023-05-12T10:46:53.484Z,201.00
2023-05-12T10:47:53.573Z,201.69
2023-05-12T10:48:53.684Z,202.24
2023-05-12T10:49:53.659Z,202.69
2023-05-12T10:50:53.656Z,201.67
2023-05-12T10:51:53.689Z,200.33
2023-05-12T10:52:53.803Z,200.66
2023-05-12T10:53:54.846Z,200.12
2023-05-12T10:54:53.796Z,200.60
2023-05-12T10:55:53.949Z,201.27
2023-05-12T10:56:54.076Z,201.12
2023-05-12T10:57:54.169Z,201.67
2023-05-12T10:58:54.203Z,202.56
2023-05-12T10:59:54.416Z,200.94
2023-05-12T11:00:55.212Z,201.62
2023-05-12T11:01:54.383Z,201.99
2023-05-12T11:02:54.536Z,202.53
2023-05-12T11:03:54.549Z,203.72
2023-05-12T11:04:54.589Z,203.21
2023-05-12T11:05:54.100Z,201.72
2023-05-12T11:06:54.564Z,200.62
2023-05-12T11:07:54.677Z,200.35
2023-05-12T11:08:55.160Z,197.75
2023-05-12T11:09:58.425Z,196.04
2023-05-12T11:10:55.057Z,185.84
2023-05-12T11:11:54.293Z,171.87
2023-05-12T11:12:53.961Z,166.79
2023-05-12T11:13:53.969Z,157.73
2023-05-12T11:14:54.425Z,168.50
2023-05-12T11:15:54.005Z,173.48
2023-05-12T11:16:53.973Z,166.24
2023-05-12T11:17:53.978Z,169.43
2023-05-12T11:18:54.081Z,174.67
2023-05-12T11:19:54.416Z,184.97
2023-05-12T11:20:53.909Z,187.00
2023-05-12T11:21:53.957Z,191.55
2023-05-12T11:22:53.918Z,197.27
2023-05-12T11:23:53.920Z,201.01
2023-05-12T11:24:54.494Z,211.52
2023-05-12T11:25:54.040Z,236.70
2023-05-12T11:26:54.029Z,233.53
2023-05-12T11:27:54.058Z,235.09
2023-05-12T11:28:54.127Z,229.48
2023-05-12T11:29:54.133Z,228.06
2023-05-12T11:30:55.451Z,234.79
2023-05-12T11:31:54.246Z,231.80
2023-05-12T11:32:54.282Z,231.24
2023-05-12T11:34:08.241Z,230.31
2023-05-12T11:34:55.289Z,230.40
2023-05-12T11:35:54.267Z,230.51
2023-05-12T11:36:54.259Z,231.14
2023-05-12T11:37:54.290Z,232.71
2023-05-12T11:38:54.230Z,234.69
2023-05-12T11:39:54.222Z,236.19
2023-05-12T11:40:54.243Z,238.31
2023-05-12T11:42:02.139Z,239.77
2023-05-12T11:42:55.212Z,239.83
2023-05-12T11:43:54.210Z,240.01
2023-05-12T11:44:54.205Z,240.68
2023-05-12T11:45:54.194Z,241.25
2023-05-12T11:46:54.199Z,241.02
2023-05-12T11:47:54.256Z,241.96
2023-05-12T11:48:54.169Z,242.16
2023-05-12T11:49:54.167Z,239.52
2023-05-12T11:50:54.191Z,240.65
2023-05-12T11:51:54.145Z,240.00
2023-05-12T11:52:54.146Z,239.78
2023-05-12T11:53:54.119Z,239.72
2023-05-12T11:54:54.123Z,239.15
2023-05-12T11:55:54.177Z,237.02
2023-05-12T11:56:54.130Z,236.77
2023-05-12T11:57:54.124Z,236.88
2023-05-12T11:58:54.125Z,235.18
2023-05-12T11:59:54.195Z,233.23
2023-05-12T12:00:54.234Z,229.56
2023-05-12T12:01:54.226Z,228.65
2023-05-12T12:02:54.412Z,225.58
2023-05-12T12:03:54.407Z,223.47
2023-05-12T12:04:54.439Z,220.66
2023-05-12T12:05:54.349Z,216.84
2023-05-12T12:06:54.396Z,213.94
2023-05-12T12:07:54.396Z,216.76
2023-05-12T12:08:54.401Z,213.07
2023-05-12T12:09:54.442Z,203.19
2023-05-12T12:10:54.445Z,198.62
2023-05-12T12:11:54.476Z,199.51
2023-05-12T12:12:54.515Z,197.83
2023-05-12T12:13:54.547Z,195.04
2023-05-12T12:14:54.604Z,195.97
2023-05-12T12:15:54.660Z,196.76
2023-05-12T12:16:54.653Z,192.05
2023-05-12T12:17:54.756Z,187.49
2023-05-12T12:18:54.773Z,188.39
2023-05-12T12:19:54.755Z,187.10
2023-05-12T12:20:54.777Z,183.83
2023-05-12T12:21:54.814Z,179.45
2023-05-12T12:22:54.908Z,173.85
2023-05-12T12:23:54.875Z,171.72
2023-05-12T12:24:54.917Z,170.22
2023-05-12T12:25:54.948Z,169.24
2023-05-12T12:26:54.980Z,168.55
2023-05-12T12:27:55.003Z,169.37
2023-05-12T12:28:55.054Z,167.84
2023-05-12T12:29:55.083Z,165.78
2023-05-12T12:30:55.136Z,166.83
2023-05-12T12:31:55.098Z,165.10
2023-05-12T12:32:55.214Z,161.99
2023-05-12T12:33:55.202Z,159.61